Soaring Guidance
Issued by NWS Reno, NV

Current Version | Previous Version | Text Only | Print | Product List | Glossary On
Versions: 1 2 3 4 5 6 7 8 9 10 11 12 13 14 15
000
UXUS97 KREV 251420
SRGREV

SOARING FORECAST
NATIONAL WEATHER SERVICE - RENO NV
700 AM PDT MON MAY 25 2015

THIS SOARING FORECAST IS FOR THE EASTERN SIERRA AND WESTERN NEVADA
WITH SPECIFIC INDICES FOR THE GREATER RENO AREA.

THIS FORECAST IS PREPARED DAILY BY 700 AM AND IS NOT UPDATED.

FOR CURRENT FLIGHT CONDITIONS...FORECASTS...AND ADVISORIES...ACCESS
YOUR LOCAL BRIEFING OUTLET OR FLIGHT SERVICE STATION.

*******************************************************************
LOCAL INDICES FOR RENO:                   TODAY     YESTERDAY
MAXIMUM TEMPERATURE AT RENO...(DEG F)...     75          75
TRIGGER TEMPERATURE...........(DEG F)...     63          61
EXCEEDED YESTERDAY BY 755 AM PDT
MAXIMUM ALTITUDE..............(FT MSL)..  15300       14900
SOARING INDEX.................(FPM).....    887         851
FORECASTED K-INDEX.........VALID 18Z....     32          30
FORECASTED K-INDEX.........VALID 00Z....     36          33
FORECASTED LIFTED INDEX....VALID 18Z....     -1           0
FORECASTED LIFTED INDEX....VALID 00Z....     -2          -1

AFTERNOON WINDS ALOFT FORECAST
MSL (FT) WIND/TEMP
9000  3009/+07
10000 2810/+03
12000 2511/-01
14000 2714/-07
16000 2717/-11
18000 2819/-14
24000 2818/-26
30000 2508/-43
34000 2613/-53
39000 2826/-60

SLIDE MOUNTAIN DATA:
SLD HR 1320 M 41/32/07003KT /SLIDE MTN UNOFFICIAL OBSERVATION

RENO TAF FORECAST:
KRNO 251129Z 2512/2612 VRB03KT P6SM SCT080
     FM252100 30010G18KT P6SM VCSH BKN060 BKN120
     FM260200 32011G19KT P6SM SCT120
     FM260500 VRB03KT P6SM SKC

CARSON CITY TAF FORECAST:
KCXP 251129Z 2512/2612 VRB04KT P6SM FEW060 BKN110
     FM251700 23009KT P6SM FEW060 SCT150
     FM252000 25008G14KT P6SM VCSH BKN060 BKN120
     FM260200 29011KT P6SM SCT120
     FM260400 VRB03KT P6SM SKC

OUTLOOK FOR THE RENO-CARSON CITY-MINDEN AREA:
.TUESDAY...PARTLY CLOUDY. ISOLATED SHOWERS AND THUNDERSTORMS IN
THE AFTERNOON. HIGHS 75 TO 80. LIGHT WINDS BECOMING WEST UP TO
10 MPH IN THE AFTERNOON.

SUNRISE AND SUNSET
MAY 25 2015...........SUNRISE   538 AM PDT   SUNSET   815 PM PDT
MAY 26 2015...........SUNRISE   537 AM PDT   SUNSET   816 PM PDT



USA.gov is the U.S. government's official web portal to all federal, state and local government web resources and services.